Time;durP1;ratioP1;P1;durP2;ratioP2;P2;SDS_P1;SDS_P2;PMS_P1;PMS_P2;Temp;Humidity;BMP_temperature;BMP_pressure;BME280_temperature;BME280_humidity;BME280_pressure;Samples;Min_cycle;Max_cycle;Signal;HPM_P1;HPM_P2
2023/07/14 00:01:53;;;;;;;12.02;8.98;;;16.30;99.90;;;;;;5092238;28;20413;-65
2023/07/14 00:04:32;;;;;;;11.85;8.68;;;16.20;99.90;;;;;;5092516;28;20059;-64
2023/07/14 00:06:59;;;;;;;9.80;8.55;;;16.20;99.90;;;;;;5092849;28;20059;-64
2023/07/14 00:09:30;;;;;;;10.30;8.20;;;16.20;99.90;;;;;;5091784;28;20472;-64
2023/07/14 00:11:58;;;;;;;11.52;8.50;;;16.20;99.90;;;;;;5092625;28;20116;-65
2023/07/14 00:14:24;;;;;;;10.75;8.27;;;16.10;99.90;;;;;;5092320;28;20040;-64
2023/07/14 00:16:52;;;;;;;10.40;7.32;;;16.20;99.90;;;;;;5092218;28;20435;-64
2023/07/14 00:19:19;;;;;;;10.73;7.85;;;16.10;99.90;;;;;;5092490;28;20400;-64
2023/07/14 00:21:46;;;;;;;10.50;9.15;;;16.10;99.90;;;;;;5092500;28;20044;-64
2023/07/14 00:24:17;;;;;;;12.13;8.60;;;16.10;99.90;;;;;;5092251;28;20055;-65
2023/07/14 00:26:47;;;;;;;11.98;8.65;;;16.10;99.90;;;;;;5071999;28;20052;-63
2023/07/14 00:29:26;;;;;;;8.77;7.85;;;16.10;99.90;;;;;;5072592;28;20052;-64
2023/07/14 00:31:52;;;;;;;10.43;8.02;;;16.10;99.90;;;;;;5072119;28;20349;-65
2023/07/14 00:34:18;;;;;;;9.80;7.80;;;16.10;99.90;;;;;;5072694;28;20419;-64
2023/07/14 00:36:44;;;;;;;11.25;7.78;;;16.00;99.90;;;;;;5074525;28;20659;-64
2023/07/14 00:39:11;;;;;;;9.93;7.70;;;16.10;99.90;;;;;;5092272;28;20127;-65
2023/07/14 00:41:37;;;;;;;11.73;8.35;;;16.00;99.90;;;;;;5092251;28;20052;-65
2023/07/14 00:44:03;;;;;;;10.82;8.30;;;15.90;99.90;;;;;;5092485;28;20048;-64
2023/07/14 00:46:32;;;;;;;10.32;7.80;;;15.90;99.90;;;;;;5072995;28;20048;-64
2023/07/14 00:49:02;;;;;;;8.85;7.60;;;15.90;99.90;;;;;;5071917;28;20040;-64
2023/07/14 00:51:31;;;;;;;10.75;7.57;;;15.80;99.90;;;;;;5071935;28;20040;-64
2023/07/14 00:53:57;;;;;;;9.35;7.22;;;15.90;99.90;;;;;;5071950;28;20064;-64
2023/07/14 00:56:35;;;;;;;8.68;6.88;;;15.90;99.90;;;;;;5089251;28;20060;-65
2023/07/14 00:59:02;;;;;;;11.25;7.35;;;15.80;99.90;;;;;;5092024;28;20519;-65
2023/07/14 01:01:28;;;;;;;8.95;7.65;;;15.80;99.90;;;;;;5074270;28;20067;-64
2023/07/14 01:03:56;;;;;;;8.75;7.47;;;15.80;99.90;;;;;;5091895;28;20460;-65
2023/07/14 01:06:36;;;;;;;10.43;6.90;;;15.80;99.90;;;;;;5074283;28;20059;-64
2023/07/14 01:09:12;;;;;;;10.55;7.65;;;15.80;99.90;;;;;;5071932;28;20118;-65
2023/07/14 01:11:43;;;;;;;8.25;7.07;;;15.80;99.90;;;;;;5071936;28;20109;-64
2023/07/14 01:14:16;;;;;;;8.43;6.18;;;15.80;99.90;;;;;;5071681;28;20365;-64
2023/07/14 01:16:43;;;;;;;8.00;6.70;;;15.70;99.90;;;;;;5070872;28;20048;-64
2023/07/14 01:19:36;;;;;;;10.38;6.50;;;15.70;99.90;;;;;;5071231;28;20452;-64
2023/07/14 01:22:19;;;;;;;10.77;6.95;;;15.70;99.90;;;;;;5073455;28;20063;-64
2023/07/14 01:24:56;;;;;;;8.73;6.72;;;15.60;99.90;;;;;;5079060;28;20101;-65
2023/07/14 01:27:24;;;;;;;9.85;6.70;;;15.60;99.90;;;;;;5077234;28;20048;-64
2023/07/14 01:29:52;;;;;;;8.63;6.18;;;15.60;99.90;;;;;;5095839;28;20341;-64
2023/07/14 01:32:21;;;;;;;8.73;5.82;;;15.60;99.90;;;;;;5095570;28;20044;-64
2023/07/14 01:34:47;;;;;;;9.23;6.32;;;15.60;99.90;;;;;;5091191;28;20097;-64
2023/07/14 01:37:18;;;;;;;8.80;6.00;;;15.60;99.90;;;;;;5074421;28;20072;-64
2023/07/14 01:39:45;;;;;;;8.65;6.15;;;15.60;99.90;;;;;;5075418;28;20473;-64
2023/07/14 01:42:12;;;;;;;8.40;5.70;;;15.70;99.90;;;;;;5075160;28;20049;-64
2023/07/14 01:44:38;;;;;;;9.18;5.65;;;15.60;99.90;;;;;;5074784;28;20106;-64
2023/07/14 01:47:09;;;;;;;6.78;5.25;;;15.80;99.90;;;;;;5074820;28;20405;-64
2023/07/14 01:49:49;;;;;;;7.90;5.93;;;15.60;99.90;;;;;;5075109;28;20056;-64
2023/07/14 01:52:27;;;;;;;8.40;5.45;;;15.60;99.90;;;;;;5075129;28;20436;-63
2023/07/14 01:54:59;;;;;;;7.10;5.28;;;15.50;99.90;;;;;;5074770;28;20052;-65
2023/07/14 01:57:29;;;;;;;7.65;5.82;;;15.60;99.90;;;;;;5074953;28;20419;-64
2023/07/14 02:00:04;;;;;;;8.30;5.50;;;15.50;99.90;;;;;;5075497;28;20098;-64
2023/07/14 02:02:34;;;;;;;8.20;5.80;;;15.50;99.90;;;;;;5074924;28;20044;-64
2023/07/14 02:05:15;;;;;;;8.50;4.90;;;15.60;99.90;;;;;;5074058;28;20094;-64
2023/07/14 02:07:41;;;;;;;8.25;5.20;;;15.50;99.90;;;;;;5074232;28;20079;-64
2023/07/14 02:10:15;;;;;;;9.77;5.70;;;15.40;99.90;;;;;;5074603;28;20049;-64
2023/07/14 02:12:46;;;;;;;9.10;5.32;;;15.40;99.90;;;;;;5075112;28;20040;-64
2023/07/14 02:15:23;;;;;;;8.18;5.40;;;15.40;99.90;;;;;;5074078;28;20059;-63
2023/07/14 02:17:50;;;;;;;7.47;5.18;;;15.40;99.90;;;;;;5074152;28;20052;-63
2023/07/14 02:20:36;;;;;;;7.13;5.07;;;15.30;99.90;;;;;;5074323;28;20056;-65
2023/07/14 02:23:06;;;;;;;7.25;4.40;;;15.40;99.90;;;;;;5074684;28;20063;-64
2023/07/14 02:25:46;;;;;;;8.43;5.40;;;15.30;99.90;;;;;;5074286;28;20127;-65
2023/07/14 02:28:14;;;;;;;11.10;5.20;;;15.30;99.90;;;;;;5073745;28;20110;-64
2023/07/14 02:30:45;;;;;;;7.72;5.03;;;15.30;99.90;;;;;;5073841;28;20071;-65
2023/07/14 02:33:14;;;;;;;9.80;5.50;;;15.30;99.90;;;;;;5073848;28;20048;-64
2023/07/14 02:36:02;;;;;;;7.82;5.53;;;15.20;99.90;;;;;;5080198;28;20105;-65
2023/07/14 02:38:29;;;;;;;10.60;5.18;;;15.20;99.90;;;;;;5076673;28;20048;-64
2023/07/14 02:41:24;;;;;;;7.60;5.35;;;15.10;99.90;;;;;;5094150;28;20109;-64
2023/07/14 02:43:54;;;;;;;8.43;5.50;;;15.10;99.90;;;;;;5083475;28;20052;-64
2023/07/14 02:46:35;;;;;;;6.10;5.30;;;15.10;99.90;;;;;;5093885;28;20356;-64
2023/07/14 02:49:12;;;;;;;8.55;5.57;;;15.10;99.90;;;;;;5094394;28;20052;-63
2023/07/14 02:51:38;;;;;;;7.65;5.40;;;15.00;99.90;;;;;;5094019;28;20048;-64
2023/07/14 02:54:06;;;;;;;7.57;5.82;;;15.00;99.90;;;;;;5094234;28;20047;-65
2023/07/14 02:56:32;;;;;;;7.18;5.10;;;15.00;99.90;;;;;;5093079;28;20460;-64
2023/07/14 02:59:00;;;;;;;8.00;5.32;;;15.00;99.90;;;;;;5094205;28;20543;-65
2023/07/14 03:01:28;;;;;;;8.05;5.38;;;15.00;99.90;;;;;;5093753;28;20109;-64
2023/07/14 03:03:56;;;;;;;7.32;5.22;;;14.90;99.90;;;;;;5094036;28;20056;-64
2023/07/14 03:06:22;;;;;;;9.20;5.97;;;15.00;99.90;;;;;;5093142;28;20052;-64
2023/07/14 03:08:49;;;;;;;7.93;5.63;;;15.00;99.90;;;;;;5093477;28;20531;-64
2023/07/14 03:11:15;;;;;;;6.93;5.40;;;15.00;99.90;;;;;;5093633;28;20097;-64
2023/07/14 03:13:43;;;;;;;8.07;5.03;;;14.90;99.90;;;;;;5093913;28;20106;-64
2023/07/14 03:16:09;;;;;;;8.38;5.53;;;14.90;99.90;;;;;;5093473;28;20314;-64
2023/07/14 03:18:36;;;;;;;10.00;5.90;;;14.90;99.90;;;;;;5092641;28;20056;-64
2023/07/14 03:21:03;;;;;;;6.38;5.22;;;14.80;99.90;;;;;;5081080;28;20121;-64
2023/07/14 03:23:30;;;;;;;7.65;5.38;;;14.80;99.90;;;;;;5085695;28;20040;-65
2023/07/14 03:26:05;;;;;;;8.80;5.93;;;14.80;99.90;;;;;;5078819;28;20051;-66
2023/07/14 03:28:32;;;;;;;10.43;5.60;;;14.90;99.90;;;;;;5078737;28;20472;-64
2023/07/14 03:31:01;;;;;;;9.40;5.82;;;14.80;99.90;;;;;;5086154;28;20047;-65
2023/07/14 03:33:29;;;;;;;8.38;5.47;;;14.80;99.90;;;;;;5077602;28;20532;-65
2023/07/14 03:35:59;;;;;;;7.20;5.93;;;14.70;99.90;;;;;;5085770;28;20056;-64
2023/07/14 03:38:26;;;;;;;9.65;5.93;;;14.70;99.90;;;;;;5093048;28;20525;-65
2023/07/14 03:40:52;;;;;;;7.38;5.32;;;14.80;99.90;;;;;;5092960;28;20513;-63
2023/07/14 03:43:18;;;;;;;8.35;5.45;;;14.80;99.90;;;;;;5092533;28;20055;-65
2023/07/14 03:45:45;;;;;;;8.10;6.40;;;14.80;99.90;;;;;;5091457;28;20052;-65
2023/07/14 03:48:11;;;;;;;7.00;6.30;;;14.80;99.90;;;;;;5092720;28;20040;-64
2023/07/14 03:50:38;;;;;;;7.88;5.97;;;14.90;99.90;;;;;;5092854;28;20056;-65
2023/07/14 03:53:04;;;;;;;8.05;5.60;;;15.00;99.90;;;;;;5093314;28;20461;-65
2023/07/14 03:55:31;;;;;;;7.40;6.03;;;14.90;99.90;;;;;;5092211;28;20048;-64
2023/07/14 03:57:58;;;;;;;9.82;6.35;;;14.90;99.90;;;;;;5092285;28;20483;-63
2023/07/14 04:00:24;;;;;;;10.10;6.70;;;15.00;99.90;;;;;;5092667;28;20059;-63
2023/07/14 04:02:50;;;;;;;8.73;6.10;;;14.90;99.90;;;;;;5092687;28;20113;-64
2023/07/14 04:05:16;;;;;;;9.30;6.55;;;14.90;99.90;;;;;;5091964;28;20052;-64
2023/07/14 04:07:43;;;;;;;10.27;7.20;;;15.00;99.90;;;;;;5092726;28;20040;-64
2023/07/14 04:10:11;;;;;;;10.38;6.78;;;15.00;99.90;;;;;;5092730;28;20347;-64
2023/07/14 04:12:37;;;;;;;10.77;6.80;;;15.00;99.90;;;;;;5093016;28;20044;-65
2023/07/14 04:15:04;;;;;;;10.73;6.30;;;15.00;99.90;;;;;;5092520;28;20040;-65
2023/07/14 04:17:31;;;;;;;9.48;8.05;;;15.10;99.90;;;;;;5092325;28;20052;-63
2023/07/14 04:19:57;;;;;;;8.95;7.38;;;15.10;99.90;;;;;;5092314;28;20104;-65
2023/07/14 04:22:23;;;;;;;12.20;7.25;;;15.10;99.90;;;;;;5092652;28;20119;-64
2023/07/14 04:24:50;;;;;;;9.10;7.30;;;15.10;99.90;;;;;;5092147;28;20384;-63
2023/07/14 04:27:16;;;;;;;13.05;8.95;;;15.20;99.90;;;;;;5091815;28;20044;-64
2023/07/14 04:29:43;;;;;;;12.07;7.95;;;15.20;99.90;;;;;;5092241;28;20173;-64
2023/07/14 04:32:09;;;;;;;10.18;8.52;;;15.20;99.90;;;;;;5092495;28;20044;-65
2023/07/14 04:34:38;;;;;;;12.55;7.72;;;15.20;99.90;;;;;;5092409;28;20048;-64
2023/07/14 04:37:05;;;;;;;10.70;7.95;;;15.30;99.90;;;;;;5073888;28;20044;-64
2023/07/14 04:39:31;;;;;;;15.18;8.27;;;15.40;99.90;;;;;;5072229;28;20384;-64
2023/07/14 04:41:57;;;;;;;9.38;7.68;;;15.40;99.90;;;;;;5071850;28;20392;-65
2023/07/14 04:44:24;;;;;;;10.07;7.35;;;15.40;99.90;;;;;;5071850;28;20052;-65
2023/07/14 04:46:50;;;;;;;9.70;7.28;;;15.50;99.90;;;;;;5071072;28;20044;-64
2023/07/14 04:49:16;;;;;;;11.38;7.88;;;15.50;99.90;;;;;;5072123;28;20058;-64
2023/07/14 04:51:43;;;;;;;10.68;7.95;;;15.50;99.90;;;;;;5071958;28;20044;-64
2023/07/14 04:54:10;;;;;;;8.93;7.80;;;15.60;99.90;;;;;;5071898;28;20044;-63
2023/07/14 04:56:39;;;;;;;8.98;7.03;;;15.70;99.90;;;;;;5074719;28;20044;-64
2023/07/14 04:59:07;;;;;;;9.63;7.82;;;15.80;99.90;;;;;;5075974;28;20053;-63
2023/07/14 05:01:33;;;;;;;9.02;7.97;;;15.80;99.90;;;;;;5076366;28;20059;-64
2023/07/14 05:04:00;;;;;;;11.77;7.97;;;15.90;99.90;;;;;;5066731;28;20115;-65
2023/07/14 05:06:26;;;;;;;9.52;8.43;;;16.10;99.90;;;;;;5069184;28;20049;-64
2023/07/14 05:08:52;;;;;;;11.43;7.80;;;16.20;99.90;;;;;;5071140;28;20044;-64
2023/07/14 05:11:18;;;;;;;10.13;7.70;;;16.30;99.90;;;;;;5065468;28;20041;-64
2023/07/14 05:13:46;;;;;;;11.40;8.80;;;16.40;99.90;;;;;;5065214;28;20049;-64
2023/07/14 05:16:12;;;;;;;10.80;8.60;;;16.90;99.90;;;;;;5072521;28;20044;-64
2023/07/14 05:18:38;;;;;;;11.15;8.38;;;17.40;99.90;;;;;;5064288;28;20049;-65
2023/07/14 05:21:05;;;;;;;8.82;7.70;;;17.90;99.90;;;;;;5062216;28;20091;-65
2023/07/14 05:23:32;;;;;;;10.95;8.50;;;18.30;99.90;;;;;;5057100;28;20045;-64
2023/07/14 05:25:59;;;;;;;12.90;8.00;;;18.70;99.90;;;;;;5068428;28;20368;-64
2023/07/14 05:28:25;;;;;;;10.95;8.90;;;19.10;99.90;;;;;;5064351;28;20033;-64
2023/07/14 05:30:52;;;;;;;11.52;8.45;;;19.50;99.90;;;;;;5043655;28;20052;-64
2023/07/14 05:33:19;;;;;;;11.13;8.60;;;19.90;99.90;;;;;;5055417;28;20048;-64
2023/07/14 05:35:46;;;;;;;11.02;8.57;;;20.30;99.90;;;;;;5068345;28;20060;-64
2023/07/14 05:38:14;;;;;;;10.23;8.75;;;20.70;99.90;;;;;;5078313;28;20110;-64
2023/07/14 05:40:40;;;;;;;10.73;8.35;;;21.20;99.90;;;;;;5075158;28;20102;-65
2023/07/14 05:43:07;;;;;;;9.00;8.05;;;21.50;99.90;;;;;;5075557;28;20064;-64
2023/07/14 05:45:33;;;;;;;12.15;8.45;;;21.60;99.90;;;;;;5083932;28;20049;-64
2023/07/14 05:48:01;;;;;;;10.60;8.88;;;22.00;99.90;;;;;;5089071;28;20049;-65
2023/07/14 05:50:27;;;;;;;10.70;8.85;;;22.20;99.90;;;;;;5080976;28;20103;-65
2023/07/14 05:52:53;;;;;;;11.80;8.60;;;22.50;99.90;;;;;;5075303;28;20052;-64
2023/07/14 05:55:19;;;;;;;9.35;8.35;;;22.70;99.90;;;;;;5079105;28;20067;-64
2023/07/14 05:57:46;;;;;;;9.25;8.35;;;23.20;99.90;;;;;;5096212;28;20036;-64
2023/07/14 06:00:16;;;;;;;9.27;8.32;;;23.50;99.90;;;;;;5095285;28;20420;-65
2023/07/14 06:02:45;;;;;;;11.23;7.97;;;23.40;99.90;;;;;;5095468;28;20044;-65
2023/07/14 06:05:12;;;;;;;10.18;8.55;;;23.60;99.90;;;;;;5094083;28;20040;-65
2023/07/14 06:07:40;;;;;;;8.70;7.80;;;23.50;99.90;;;;;;5094404;28;20044;-62
2023/07/14 06:10:08;;;;;;;10.35;8.27;;;23.50;99.90;;;;;;5094715;28;20104;-62
2023/07/14 06:12:34;;;;;;;9.27;8.30;;;23.50;99.90;;;;;;5094542;28;20169;-62
2023/07/14 06:15:01;;;;;;;10.90;8.57;;;23.90;99.90;;;;;;5094234;28;20422;-62
2023/07/14 06:17:27;;;;;;;13.38;8.98;;;24.10;99.90;;;;;;5093072;28;20055;-62
2023/07/14 06:19:54;;;;;;;9.45;8.10;;;24.40;99.90;;;;;;5085742;28;20043;-64
2023/07/14 06:22:21;;;;;;;8.63;7.75;;;24.30;99.90;;;;;;5084444;28;20059;-63
2023/07/14 06:24:48;;;;;;;9.13;8.10;;;24.40;99.90;;;;;;5087621;28;20052;-62
2023/07/14 06:27:15;;;;;;;10.25;8.30;;;24.10;99.90;;;;;;5089040;28;20044;-64
2023/07/14 06:29:41;;;;;;;9.52;7.95;;;24.20;99.90;;;;;;5085556;28;20047;-63
2023/07/14 06:32:08;;;;;;;9.60;8.15;;;24.30;99.90;;;;;;5085778;28;20052;-63
2023/07/14 06:34:35;;;;;;;9.45;8.15;;;24.70;99.90;;;;;;5083686;28;20036;-64
2023/07/14 06:37:01;;;;;;;9.75;8.23;;;24.60;99.90;;;;;;5089493;28;20052;-64
2023/07/14 06:39:28;;;;;;;10.93;8.38;;;24.50;99.90;;;;;;5094754;28;20052;-63
2023/07/14 06:41:54;;;;;;;9.02;7.88;;;24.90;99.90;;;;;;5094415;28;20349;-64
2023/07/14 06:44:20;;;;;;;8.90;7.70;;;25.30;99.90;;;;;;5094805;28;20368;-64
2023/07/14 06:46:46;;;;;;;9.13;7.63;;;25.60;99.90;;;;;;5094480;28;20101;-63
2023/07/14 06:49:12;;;;;;;9.93;6.95;;;25.60;99.90;;;;;;5094782;28;20078;-64
2023/07/14 06:51:39;;;;;;;7.05;6.28;;;25.40;99.90;;;;;;5094084;28;20051;-64
2023/07/14 06:54:05;;;;;;;7.80;6.10;;;25.20;99.90;;;;;;5094864;28;20052;-64
2023/07/14 06:56:31;;;;;;;7.57;6.10;;;25.00;99.90;;;;;;5094427;28;20040;-64
2023/07/14 06:58:58;;;;;;;8.50;5.68;;;25.10;99.90;;;;;;5094895;28;20052;-64
2023/07/14 07:01:25;;;;;;;7.07;5.63;;;24.90;99.90;;;;;;5093612;28;20109;-64
2023/07/14 07:03:51;;;;;;;8.05;6.03;;;24.70;99.90;;;;;;5094517;28;20054;-64
2023/07/14 07:06:17;;;;;;;6.90;6.10;;;24.10;99.90;;;;;;5094278;28;20088;-64
2023/07/14 07:08:45;;;;;;;7.25;5.75;;;23.80;99.90;;;;;;5094101;28;20040;-63
2023/07/14 07:11:13;;;;;;;8.20;5.80;;;23.60;99.90;;;;;;5076166;28;20063;-64
2023/07/14 07:13:39;;;;;;;9.18;5.88;;;23.30;99.90;;;;;;5094424;28;20044;-64
2023/07/14 07:16:06;;;;;;;9.68;5.18;;;23.00;99.90;;;;;;5087814;28;20040;-63
2023/07/14 07:18:32;;;;;;;6.07;4.10;;;22.90;99.90;;;;;;5083926;28;20117;-63
2023/07/14 07:20:59;;;;;;;6.90;3.10;;;22.80;99.90;;;;;;5083193;28;20059;-64
2023/07/14 07:23:25;;;;;;;5.47;3.67;;;22.80;99.90;;;;;;5084833;28;20063;-63
2023/07/14 07:25:54;;;;;;;5.00;2.95;;;22.60;99.90;;;;;;5093777;28;20052;-63
2023/07/14 07:28:21;;;;;;;6.88;4.05;;;22.50;99.90;;;;;;5093813;28;20044;-64
2023/07/14 07:30:47;;;;;;;6.30;3.30;;;22.50;99.90;;;;;;5093634;28;20439;-64
2023/07/14 07:33:14;;;;;;;6.95;3.58;;;22.60;99.90;;;;;;5093522;28;20461;-64
2023/07/14 07:35:41;;;;;;;5.00;3.42;;;22.50;99.90;;;;;;5075360;28;20419;-63
2023/07/14 07:38:11;;;;;;;7.07;3.78;;;22.40;99.90;;;;;;5093967;28;20100;-64
2023/07/14 07:40:44;;;;;;;6.72;3.97;;;22.40;99.90;;;;;;5093017;28;20423;-64
2023/07/14 07:43:10;;;;;;;5.88;3.92;;;22.50;99.90;;;;;;5085408;28;20044;-63
2023/07/14 07:45:37;;;;;;;9.65;4.35;;;22.60;99.90;;;;;;5092804;28;20040;-64
2023/07/14 07:48:05;;;;;;;6.07;3.60;;;22.50;99.90;;;;;;5093188;28;20521;-64
2023/07/14 07:50:31;;;;;;;7.85;4.03;;;22.50;99.90;;;;;;5093340;28;20040;-64
2023/07/14 07:52:57;;;;;;;6.68;3.83;;;22.60;99.90;;;;;;5093603;28;20509;-63
2023/07/14 07:55:24;;;;;;;7.95;3.83;;;22.70;99.90;;;;;;5093641;28;20052;-64
2023/07/14 07:57:51;;;;;;;6.30;3.60;;;22.80;99.90;;;;;;5093428;28;20105;-63
2023/07/14 08:00:17;;;;;;;4.72;3.17;;;23.00;99.90;;;;;;5093542;28;20062;-64
2023/07/14 08:02:44;;;;;;;4.80;3.13;;;23.10;99.90;;;;;;5093466;28;20490;-63
2023/07/14 08:05:12;;;;;;;8.95;4.05;;;23.20;99.90;;;;;;5093567;28;20058;-64
2023/07/14 08:07:39;;;;;;;7.20;3.72;;;23.10;99.90;;;;;;5093459;28;20052;-63
2023/07/14 08:10:07;;;;;;;6.25;3.05;;;23.00;99.90;;;;;;5093365;28;20094;-64
2023/07/14 08:12:34;;;;;;;6.35;3.10;;;22.90;99.90;;;;;;5093421;28;20048;-64
2023/07/14 08:15:02;;;;;;;6.95;3.60;;;23.20;99.90;;;;;;5092827;28;20044;-64
2023/07/14 08:17:31;;;;;;;6.28;3.40;;;23.20;99.90;;;;;;5093383;28;20055;-63
2023/07/14 08:19:59;;;;;;;6.43;3.13;;;23.30;99.90;;;;;;5092749;28;20333;-64
2023/07/14 08:22:26;;;;;;;5.53;3.33;;;23.30;99.90;;;;;;5093125;28;20066;-63
2023/07/14 08:24:56;;;;;;;6.60;3.28;;;23.10;99.90;;;;;;5092409;28;20403;-64
2023/07/14 08:27:22;;;;;;;7.18;3.45;;;23.20;99.90;;;;;;5093175;28;20052;-64
2023/07/14 08:29:49;;;;;;;6.40;3.60;;;23.20;99.90;;;;;;5091962;28;20101;-64
2023/07/14 08:32:15;;;;;;;5.13;3.50;;;23.10;99.90;;;;;;5092819;28;20349;-64
2023/07/14 08:34:42;;;;;;;5.68;3.00;;;22.90;99.90;;;;;;5092595;28;20463;-64
2023/07/14 08:37:08;;;;;;;4.45;3.70;;;22.80;99.90;;;;;;5091952;28;20460;-65
2023/07/14 08:39:34;;;;;;;5.63;3.78;;;22.80;99.90;;;;;;5092928;28;20105;-64
2023/07/14 08:42:07;;;;;;;6.18;3.50;;;22.90;99.90;;;;;;5092050;28;20052;-64
2023/07/14 08:45:00;;;;;;;8.27;4.03;;;23.30;99.90;;;;;;5087909;28;20056;-63
2023/07/14 08:47:36;;;;;;;4.95;3.90;;;23.40;99.90;;;;;;5072488;28;20052;-64
2023/07/14 08:50:11;;;;;;;6.45;5.13;;;23.00;99.90;;;;;;5072206;28;20055;-63
2023/07/14 08:52:39;;;;;;;7.97;4.75;;;22.90;99.90;;;;;;5072704;28;20049;-64
2023/07/14 08:55:15;;;;;;;6.80;4.00;;;22.70;99.90;;;;;;5073397;28;20044;-64
2023/07/14 08:57:55;;;;;;;5.40;3.45;;;22.40;99.90;;;;;;5088935;28;20105;-64
2023/07/14 09:00:36;;;;;;;5.53;3.70;;;22.40;99.90;;;;;;5092445;28;20052;-63
2023/07/14 09:03:16;;;;;;;6.50;4.13;;;22.50;99.90;;;;;;5093307;28;20048;-63
2023/07/14 09:05:54;;;;;;;6.63;3.67;;;22.60;99.90;;;;;;5094918;28;20040;-64
2023/07/14 09:08:28;;;;;;;6.20;3.42;;;22.90;99.90;;;;;;5092462;28;20052;-62
2023/07/14 09:11:35;;;;;;;5.15;3.40;;;23.20;99.90;;;;;;5092143;28;20472;-63
2023/07/14 09:14:31;;;;;;;6.60;3.45;;;23.40;99.90;;;;;;5092502;28;20056;-64
2023/07/14 09:17:04;;;;;;;;;;;23.40;99.90;;;;;;5092532;28;20051;-63
2023/07/14 09:20:02;;;;;;;5.68;3.55;;;23.60;99.90;;;;;;5092316;28;19928;-62
2023/07/14 09:22:44;;;;;;;7.28;3.63;;;23.90;99.90;;;;;;5092456;28;20044;-65
2023/07/14 09:25:32;;;;;;;9.90;3.72;;;24.00;99.40;;;;;;5091350;28;20422;-62
2023/07/14 09:28:00;;;;;;;6.53;4.13;;;23.70;99.30;;;;;;5092478;28;20048;-63
2023/07/14 09:30:28;;;;;;;4.65;3.25;;;23.40;99.90;;;;;;5091593;28;20468;-65
2023/07/14 09:33:05;;;;;;;4.60;3.60;;;23.60;99.90;;;;;;5092218;28;20056;-63
2023/07/14 09:35:31;;;;;;;;;;;23.80;99.90;;;;;;5092029;28;20044;-64
2023/07/14 09:38:10;;;;;;;6.57;4.05;;;23.70;99.90;;;;;;5092313;28;19928;-63
2023/07/14 09:40:40;;;;;;;8.93;3.75;;;23.80;99.70;;;;;;5091845;28;20411;-64
2023/07/14 09:43:07;;;;;;;8.82;4.03;;;23.50;99.90;;;;;;5096255;28;20472;-64
2023/07/14 09:45:35;;;;;;;7.13;3.72;;;23.40;99.90;;;;;;5080028;28;20055;-65
2023/07/14 09:48:10;;;;;;;7.20;4.25;;;23.10;99.90;;;;;;5095992;28;20056;-64
2023/07/14 09:50:44;;;;;;;6.60;4.00;;;23.20;99.90;;;;;;5095202;28;20113;-65
2023/07/14 09:53:11;;;;;;;5.68;3.90;;;23.10;99.90;;;;;;5087591;28;20056;-65
2023/07/14 09:55:49;;;;;;;7.57;4.15;;;23.30;99.90;;;;;;5095428;28;20082;-64
2023/07/14 09:58:16;;;;;;;7.40;4.10;;;23.40;99.90;;;;;;5095996;28;20048;-64
2023/07/14 10:00:43;;;;;;;6.80;4.38;;;23.40;99.90;;;;;;5094834;28;20380;-64
2023/07/14 10:03:15;;;;;;;5.68;4.28;;;23.50;99.90;;;;;;5095531;28;20118;-64
2023/07/14 10:05:48;;;;;;;7.35;4.20;;;23.30;99.90;;;;;;5094988;28;20105;-63
2023/07/14 10:08:23;;;;;;;5.25;3.60;;;23.30;99.90;;;;;;5095737;28;20052;-64
2023/07/14 10:10:50;;;;;;;5.55;3.83;;;23.40;99.60;;;;;;5076919;28;20044;-64
2023/07/14 10:13:22;;;;;;;7.43;3.80;;;23.10;99.60;;;;;;5095326;28;20044;-64
2023/07/14 10:16:16;;;;;;;7.35;4.70;;;23.10;99.60;;;;;;5095035;28;20098;-64
2023/07/14 10:19:18;;;;;;;6.10;4.38;;;23.10;99.90;;;;;;5078581;28;20056;-64
2023/07/14 10:21:55;;;;;;;5.85;4.25;;;23.20;99.80;;;;;;4993205;28;20050;-64
2023/07/14 10:24:24;;;;;;;6.45;4.47;;;23.40;99.90;;;;;;5060618;28;20059;-63
2023/07/14 10:26:54;;;;;;;6.18;4.30;;;23.50;99.90;;;;;;5091866;28;20055;-64
2023/07/14 10:29:22;;;;;;;5.35;4.18;;;23.40;99.70;;;;;;5093888;28;20040;-65
2023/07/14 10:31:58;;;;;;;6.55;4.47;;;23.50;99.80;;;;;;5095352;28;20060;-65
2023/07/14 10:34:35;;;;;;;7.28;4.30;;;23.70;99.60;;;;;;5094956;28;20109;-64
2023/07/14 10:37:09;;;;;;;6.00;4.22;;;24.10;99.70;;;;;;5092524;28;20052;-64
2023/07/14 10:39:45;;;;;;;7.60;4.35;;;24.00;99.10;;;;;;5080847;28;20117;-63
2023/07/14 10:42:19;;;;;;;6.22;4.32;;;24.00;99.20;;;;;;5076812;28;20389;-64
2023/07/14 10:44:46;;;;;;;6.10;4.18;;;24.00;99.10;;;;;;5094874;28;20052;-64
2023/07/14 10:47:23;;;;;;;6.90;4.20;;;23.80;99.20;;;;;;5086287;28;20052;-64
2023/07/14 10:49:59;;;;;;;8.13;4.15;;;24.20;99.00;;;;;;5094386;28;20048;-65
2023/07/14 10:52:37;;;;;;;8.25;5.05;;;24.40;99.30;;;;;;5094670;28;20044;-64
2023/07/14 10:55:13;;;;;;;7.68;4.30;;;24.30;99.20;;;;;;5094284;28;20459;-64
2023/07/14 10:57:56;;;;;;;6.55;4.22;;;24.10;99.40;;;;;;5094591;28;20089;-64
2023/07/14 11:00:25;;;;;;;;;;;24.20;99.40;;;;;;5094635;28;20048;-64
2023/07/14 11:03:08;;;;;;;6.03;4.30;;;23.90;99.10;;;;;;5093475;28;19920;-65
2023/07/14 11:05:35;;;;;;;8.90;4.95;;;24.10;99.20;;;;;;5079905;28;20044;-64
2023/07/14 11:08:02;;;;;;;7.00;4.65;;;24.00;99.40;;;;;;5094380;28;20124;-64
2023/07/14 11:10:51;;;;;;;5.30;4.43;;;24.20;99.60;;;;;;5093656;28;20058;-64
2023/07/14 11:13:38;;;;;;;7.00;4.68;;;24.50;98.90;;;;;;5094428;28;20055;-64
2023/07/14 11:16:09;;;;;;;8.80;5.10;;;24.50;98.70;;;;;;5093813;28;20040;-63
2023/07/14 11:18:36;;;;;;;8.30;4.70;;;24.40;98.70;;;;;;5094261;28;20045;-64
2023/07/14 11:21:50;;;;;;;6.45;4.43;;;24.50;98.70;;;;;;5092658;28;20480;-65
2023/07/14 11:24:19;;;;;;;6.60;4.72;;;24.70;97.80;;;;;;5062360;28;20044;-64
2023/07/14 11:27:27;;;;;;;6.13;4.20;;;24.80;98.40;;;;;;5089523;28;20048;-64
2023/07/14 11:29:58;;;;;;;5.40;4.45;;;25.20;97.80;;;;;;5092644;28;20431;-65
2023/07/14 11:32:39;;;;;;;5.40;4.18;;;25.20;97.90;;;;;;5093850;28;20102;-64
2023/07/14 11:35:25;;;;;;;8.50;5.22;;;25.20;97.30;;;;;;5075659;28;20456;-64
2023/07/14 11:38:04;;;;;;;7.80;4.68;;;25.10;98.00;;;;;;5090405;28;20048;-64
2023/07/14 11:40:40;;;;;;;8.13;5.20;;;24.90;98.00;;;;;;5081605;28;20440;-65
2023/07/14 11:43:13;;;;;;;7.18;5.20;;;24.70;98.10;;;;;;5082736;28;20157;-64
2023/07/14 11:45:40;;;;;;;8.60;5.55;;;24.70;98.20;;;;;;5089189;28;20040;-65
2023/07/14 11:48:22;;;;;;;8.93;5.50;;;24.40;98.40;;;;;;5083733;28;20422;-64
2023/07/14 11:51:08;;;;;;;7.50;5.63;;;24.60;98.70;;;;;;5082087;28;20047;-64
2023/07/14 11:53:39;;;;;;;8.68;5.60;;;24.50;98.40;;;;;;5081484;28;20043;-65
2023/07/14 11:56:21;;;;;;;9.60;5.63;;;24.40;98.70;;;;;;5091081;28;20487;-65
2023/07/14 11:59:10;;;;;;;9.25;6.15;;;24.30;98.70;;;;;;5075133;28;20044;-65
2023/07/14 12:01:45;;;;;;;6.63;4.85;;;24.30;98.90;;;;;;5075933;28;20106;-65
2023/07/14 12:04:24;;;;;;;8.10;6.80;;;24.30;98.80;;;;;;5093370;28;20105;-64
2023/07/14 12:07:16;;;;;;;8.23;6.22;;;24.30;98.80;;;;;;5092745;28;20051;-64
2023/07/14 12:10:15;;;;;;;9.05;6.00;;;24.10;99.10;;;;;;5093200;28;20044;-65
2023/07/14 12:13:12;;;;;;;11.57;6.50;;;24.10;99.00;;;;;;5037136;28;20047;-65
2023/07/14 12:15:44;;;;;;;7.82;5.93;;;24.20;98.90;;;;;;5092954;28;20051;-65
2023/07/14 12:18:35;;;;;;;6.13;4.50;;;24.40;98.60;;;;;;5093093;28;20475;-64
2023/07/14 12:21:16;;;;;;;7.05;4.63;;;24.40;98.70;;;;;;5093230;28;20109;-64
2023/07/14 12:23:49;;;;;;;9.18;5.30;;;24.40;98.60;;;;;;5092665;28;20488;-64
2023/07/14 12:26:17;;;;;;;9.75;5.82;;;24.50;98.80;;;;;;5092784;28;20055;-65
2023/07/14 12:28:44;;;;;;;8.18;4.78;;;24.60;98.80;;;;;;5091667;28;20117;-65
2023/07/14 12:31:16;;;;;;;9.00;5.40;;;24.60;98.60;;;;;;5080673;28;20044;-64
2023/07/14 12:33:45;;;;;;;6.45;3.97;;;24.80;98.70;;;;;;5090133;28;20058;-65
2023/07/14 12:36:20;;;;;;;6.63;4.70;;;25.00;98.70;;;;;;5092120;28;20044;-64
2023/07/14 12:38:49;;;;;;;8.80;5.80;;;25.20;98.20;;;;;;5092819;28;20050;-65
2023/07/14 12:41:17;;;;;;;8.45;4.90;;;25.10;98.40;;;;;;5092665;28;20048;-64
2023/07/14 12:43:49;;;;;;;9.23;4.65;;;25.30;98.40;;;;;;5092698;28;20422;-65
2023/07/14 12:46:35;;;;;;;7.25;4.97;;;25.40;98.00;;;;;;5092480;28;20052;-64
2023/07/14 12:49:37;;;;;;;8.00;4.32;;;25.40;98.30;;;;;;5092652;28;20240;-64
2023/07/14 12:52:12;;;;;;;7.40;4.20;;;25.20;98.10;;;;;;5092968;28;20048;-64
2023/07/14 12:54:43;;;;;;;6.22;4.60;;;24.90;98.20;;;;;;5092725;28;20479;-64
2023/07/14 12:57:13;;;;;;;6.57;4.32;;;24.70;98.60;;;;;;5091992;28;20040;-64
2023/07/14 12:59:39;;;;;;;10.18;4.82;;;24.70;98.50;;;;;;5092489;28;20040;-65
2023/07/14 13:02:10;;;;;;;5.93;4.20;;;24.60;98.50;;;;;;5092783;28;20423;-65
2023/07/14 13:04:37;;;;;;;;;;;24.40;98.40;;;;;;5093058;28;20116;-65
2023/07/14 13:07:06;;;;;;;8.35;4.47;;;24.40;98.60;;;;;;5092486;28;19920;-65